Time;durP1;ratioP1;P1;durP2;ratioP2;P2;SDS_P1;SDS_P2;PMS_P1;PMS_P2;Temp;Humidity;BMP_temperature;BMP_pressure;BME280_temperature;BME280_humidity;BME280_pressure;Samples;Min_cycle;Max_cycle;Signal;HPM_P1;HPM_P2
2024/03/20 00:00:55;;;;;;;23.73;14.20;;;;;;;10.68;87.63;101230.53;4953660;28;20057;-83
2024/03/20 00:03:22;;;;;;;23.15;13.82;;;;;;;10.67;87.79;101226.16;4968171;28;20042;-82
2024/03/20 00:05:49;;;;;;;21.48;12.75;;;;;;;10.69;87.41;101223.53;4948125;28;20042;-82
2024/03/20 00:08:15;;;;;;;23.70;14.02;;;;;;;10.69;87.71;101224.44;4956963;28;20099;-83
2024/03/20 00:10:46;;;;;;;24.48;14.07;;;;;;;10.71;87.18;101219.19;4967839;28;20522;-81
2024/03/20 00:13:16;;;;;;;19.25;13.35;;;;;;;10.71;86.95;101225.28;4959220;28;20046;-83
2024/03/20 00:15:46;;;;;;;20.23;12.45;;;;;;;10.72;87.12;101227.03;4963487;28;20039;-82
2024/03/20 00:18:14;;;;;;;21.45;13.73;;;;;;;10.71;87.48;101217.44;4961515;28;20046;-82
2024/03/20 00:20:41;;;;;;;23.42;13.90;;;;;;;10.72;87.49;101215.72;4960882;28;20387;-82
2024/03/20 00:23:08;;;;;;;25.52;15.02;;;;;;;10.73;87.45;101212.22;4957955;28;20073;-83
2024/03/20 00:25:35;;;;;;;24.17;14.95;;;;;;;10.75;87.57;101216.59;4963007;28;20581;-84
2024/03/20 00:28:01;;;;;;;21.55;13.00;;;;;;;10.78;87.25;101212.19;4972758;28;20391;-83
2024/03/20 00:30:28;;;;;;;27.90;14.82;;;;;;;10.75;87.17;101210.47;4956238;28;20058;-82
2024/03/20 00:32:54;;;;;;;25.65;13.93;;;;;;;10.74;87.30;101208.69;4969831;28;20142;-81
2024/03/20 00:35:21;;;;;;;20.25;13.23;;;;;;;10.75;87.12;101208.72;4958368;28;20129;-82
2024/03/20 00:37:47;;;;;;;21.40;13.25;;;;;;;10.75;87.15;101202.59;4949908;28;20054;-83
2024/03/20 00:40:17;;;;;;;27.50;12.95;;;;;;;10.73;87.11;101204.38;4963744;28;20043;-82
2024/03/20 00:42:44;;;;;;;27.67;13.32;;;;;;;10.72;87.12;101206.09;4955444;28;20047;-83
2024/03/20 00:45:10;;;;;;;19.88;12.43;;;;;;;10.72;87.34;101200.00;4953849;28;20048;-82
2024/03/20 00:47:37;;;;;;;21.77;13.95;;;;;;;10.70;87.39;101199.09;4942078;28;20042;-83
2024/03/20 00:50:04;;;;;;;24.13;14.52;;;;;;;10.71;87.32;101201.72;4959937;28;20051;-81
2024/03/20 00:52:30;;;;;;;24.98;13.77;;;;;;;10.67;87.60;101201.75;4969513;28;20042;-82
2024/03/20 00:54:57;;;;;;;21.30;13.95;;;;;;;10.68;87.46;101196.50;4977233;28;20449;-83
2024/03/20 00:57:24;;;;;;;24.15;14.85;;;;;;;10.67;87.84;101196.50;4952583;28;20047;-82
2024/03/20 00:59:51;;;;;;;21.55;13.57;;;;;;;10.65;88.06;101193.91;4958534;28;20506;-81
2024/03/20 01:02:18;;;;;;;30.13;15.13;;;;;;;10.63;87.91;101193.00;4980337;28;20048;-82
2024/03/20 01:04:44;;;;;;;36.17;13.20;;;;;;;10.62;87.92;101186.03;4969829;28;20054;-82
2024/03/20 01:07:11;;;;;;;22.52;14.82;;;;;;;10.59;87.98;101184.28;4957305;28;20413;-82
2024/03/20 01:09:37;;;;;;;23.90;13.25;;;;;;;10.59;87.94;101192.13;4962443;28;20070;-82
2024/03/20 01:12:04;;;;;;;22.48;14.10;;;;;;;10.53;88.29;101184.31;4959880;28;20035;-82
2024/03/20 01:14:31;;;;;;;27.08;14.02;;;;;;;10.55;88.78;101185.16;4952835;28;20097;-83
2024/03/20 01:16:59;;;;;;;24.92;13.27;;;;;;;10.55;88.76;101186.91;4963634;28;20058;-83
2024/03/20 01:19:29;;;;;;;26.15;12.52;;;;;;;10.55;88.21;101187.78;4961644;28;20057;-83
2024/03/20 01:21:56;;;;;;;21.67;13.02;;;;;;;10.55;88.33;101182.53;4964000;28;20466;-82
2024/03/20 01:24:23;;;;;;;21.45;13.13;;;;;;;10.54;88.46;101186.03;4979025;28;20051;-82
2024/03/20 01:26:50;;;;;;;27.90;14.95;;;;;;;10.52;88.89;101184.28;4945723;28;20043;-82
2024/03/20 01:29:16;;;;;;;19.55;13.02;;;;;;;10.52;89.15;101182.56;4963327;28;20049;-84
2024/03/20 01:31:44;;;;;;;25.55;14.60;;;;;;;10.52;89.30;101187.78;4940097;28;20066;-83
2024/03/20 01:34:13;;;;;;;21.42;12.57;;;;;;;10.51;89.34;101188.66;4953032;28;20043;-83
2024/03/20 01:36:40;;;;;;;22.60;13.73;;;;;;;10.50;89.34;101181.66;4964433;28;20537;-83
2024/03/20 01:39:06;;;;;;;25.00;15.13;;;;;;;10.51;89.39;101183.41;4971152;28;20073;-82
2024/03/20 01:41:36;;;;;;;25.10;14.32;;;;;;;10.52;89.46;101173.81;4964308;28;20043;-82
2024/03/20 01:44:06;;;;;;;26.48;13.88;;;;;;;10.52;89.41;101171.19;4970793;28;20042;-81
2024/03/20 01:46:35;;;;;;;30.35;13.23;;;;;;;10.51;89.57;101178.19;4963010;28;20062;-80
2024/03/20 01:49:04;;;;;;;22.83;13.93;;;;;;;10.48;89.94;101172.97;4969619;28;20425;-83
2024/03/20 01:51:37;;;;;;;21.83;12.80;;;;;;;10.47;89.98;101171.22;4974061;28;20038;-82
2024/03/20 01:54:04;;;;;;;24.92;14.50;;;;;;;10.48;90.09;101169.44;4969236;28;20038;-81
2024/03/20 01:56:33;;;;;;;21.83;12.32;;;;;;;10.47;89.54;101168.59;4963122;28;20412;-81
2024/03/20 01:58:59;;;;;;;20.75;13.95;;;;;;;10.48;89.73;101177.31;4968452;28;20785;-81
2024/03/20 02:01:26;;;;;;;24.80;13.55;;;;;;;10.45;90.14;101175.56;4948713;28;20046;-82
2024/03/20 02:03:54;;;;;;;23.75;13.85;;;;;;;10.44;89.92;101176.44;4969875;28;20043;-82
2024/03/20 02:06:29;;;;;;;23.13;13.15;;;;;;;10.42;90.18;101173.81;4961387;28;20055;-84
2024/03/20 02:09:00;;;;;;;23.08;13.93;;;;;;;10.41;90.27;101174.69;4957027;28;20063;-81
2024/03/20 02:11:31;;;;;;;25.20;14.07;;;;;;;10.40;90.21;101172.97;4960361;28;20047;-84
2024/03/20 02:13:58;;;;;;;24.15;13.32;;;;;;;10.39;89.79;101175.56;4965275;28;20039;-82
2024/03/20 02:16:27;;;;;;;24.67;14.77;;;;;;;10.36;90.23;101168.56;4965223;28;20215;-83
2024/03/20 02:18:56;;;;;;;24.35;13.88;;;;;;;10.34;90.24;101179.88;4964900;28;20050;-81
2024/03/20 02:21:24;;;;;;;22.92;14.05;;;;;;;10.32;90.30;101174.66;4966113;28;20038;-83
2024/03/20 02:23:53;;;;;;;22.83;14.38;;;;;;;10.27;90.55;101172.03;4965058;28;20038;-83
2024/03/20 02:26:20;;;;;;;24.98;13.80;;;;;;;10.29;90.42;101171.19;4960444;28;20133;-82
2024/03/20 02:28:48;;;;;;;23.77;14.43;;;;;;;10.27;90.46;101168.53;4970753;28;20046;-83
2024/03/20 02:31:15;;;;;;;24.65;13.80;;;;;;;10.23;90.26;101172.91;4951238;28;20097;-81
2024/03/20 02:33:45;;;;;;;27.05;15.48;;;;;;;10.24;90.43;101173.78;4962215;28;20042;-83
2024/03/20 02:36:19;;;;;;;28.38;13.63;;;;;;;10.23;90.29;101166.78;4968550;28;20073;-83
2024/03/20 02:38:46;;;;;;;22.42;13.18;;;;;;;10.24;90.19;101163.31;4963203;28;20093;-83
2024/03/20 02:41:17;;;;;;;23.48;14.50;;;;;;;10.22;89.92;101159.81;4964779;28;20113;-82
2024/03/20 02:43:44;;;;;;;20.63;13.27;;;;;;;10.21;89.95;101160.72;4971280;28;20058;-82
2024/03/20 02:46:12;;;;;;;24.08;14.10;;;;;;;10.20;89.82;101167.66;4943375;28;20059;-81
2024/03/20 02:48:39;;;;;;;26.23;14.48;;;;;;;10.18;90.23;101161.56;4949419;28;20497;-82
2024/03/20 02:51:05;;;;;;;23.63;13.30;;;;;;;10.18;89.94;101161.56;4982026;28;20046;-81
2024/03/20 02:53:32;;;;;;;20.60;12.95;;;;;;;10.17;89.96;101161.56;4978152;28;20058;-80
2024/03/20 02:55:58;;;;;;;24.65;13.95;;;;;;;10.16;89.80;101160.69;4962713;28;20074;-83
2024/03/20 02:58:25;;;;;;;26.35;13.40;;;;;;;10.15;89.93;101160.69;4965354;28;20442;-81
2024/03/20 03:00:52;;;;;;;23.45;14.02;;;;;;;10.14;89.62;101162.41;4952814;28;20067;-82
2024/03/20 03:03:19;;;;;;;23.38;13.20;;;;;;;10.10;89.58;101158.06;4959875;28;20359;-82
2024/03/20 03:05:45;;;;;;;23.60;14.07;;;;;;;10.07;90.16;101163.28;4979902;28;20094;-82
2024/03/20 03:08:15;;;;;;;24.60;12.13;;;;;;;10.04;89.92;101165.91;4968438;28;20046;-81
2024/03/20 03:10:43;;;;;;;24.48;13.40;;;;;;;10.00;90.36;101161.53;4969691;28;20371;-81
2024/03/20 03:13:11;;;;;;;23.67;13.57;;;;;;;9.94;90.57;101162.41;4969148;28;20046;-82
2024/03/20 03:15:38;;;;;;;23.20;14.23;;;;;;;9.89;90.80;101167.59;4984279;28;20049;-82
2024/03/20 03:18:07;;;;;;;19.95;11.63;;;;;;;9.85;91.17;101167.63;4976391;28;20650;-83
2024/03/20 03:20:35;;;;;;;23.27;12.95;;;;;;;9.81;91.71;101164.13;4962077;28;20074;-82
2024/03/20 03:23:02;;;;;;;24.90;12.43;;;;;;;9.78;91.94;101164.13;4943958;28;20365;-83
2024/03/20 03:25:31;;;;;;;23.73;13.45;;;;;;;9.79;92.43;101162.38;4945334;28;20051;-84
2024/03/20 03:27:58;;;;;;;20.05;12.63;;;;;;;9.79;92.53;101160.63;4961146;28;20141;-83
2024/03/20 03:30:25;;;;;;;20.10;12.27;;;;;;;9.82;92.07;101159.78;4963197;28;20049;-82
2024/03/20 03:32:51;;;;;;;25.50;13.68;;;;;;;9.83;91.99;101158.88;4946630;28;20046;-80
2024/03/20 03:35:20;;;;;;;23.17;13.10;;;;;;;9.83;92.28;101154.53;4973094;28;20455;-83
2024/03/20 03:37:49;;;;;;;21.80;13.93;;;;;;;9.86;91.57;101161.53;4961576;28;20057;-82
2024/03/20 03:40:16;;;;;;;25.13;14.43;;;;;;;9.86;91.53;101165.00;4958494;28;20043;-80
2024/03/20 03:42:45;;;;;;;23.98;12.57;;;;;;;9.87;91.99;101163.28;4950990;28;20061;-81
2024/03/20 03:45:11;;;;;;;22.27;13.38;;;;;;;9.88;91.73;101165.88;4969943;28;20043;-83
2024/03/20 03:47:38;;;;;;;19.75;12.50;;;;;;;9.86;92.04;101156.28;4961170;28;20057;-82
2024/03/20 03:50:05;;;;;;;31.15;13.75;;;;;;;9.85;91.61;101171.09;4965700;28;20097;-82
2024/03/20 03:52:33;;;;;;;16.95;11.30;;;;;;;9.87;91.46;101158.91;4981588;28;20043;-82
2024/03/20 03:55:00;;;;;;;21.38;12.77;;;;;;;9.85;91.76;101167.63;4966842;28;20035;-83
2024/03/20 03:57:26;;;;;;;25.70;13.48;;;;;;;9.84;91.97;101158.91;4961795;28;20141;-82
2024/03/20 03:59:54;;;;;;;21.25;12.52;;;;;;;9.78;92.16;101161.50;4967145;28;20046;-81
2024/03/20 04:02:27;;;;;;;20.52;13.40;;;;;;;9.79;92.28;101168.50;4948843;28;20050;-82
2024/03/20 04:04:54;;;;;;;18.08;12.10;;;;;;;9.76;92.27;101171.06;4951221;28;20058;-81
2024/03/20 04:07:21;;;;;;;22.23;12.40;;;;;;;9.76;92.42;101169.34;4974825;28;20511;-83
2024/03/20 04:09:48;;;;;;;20.02;11.95;;;;;;;9.74;92.45;101162.38;4970213;28;20042;-82
2024/03/20 04:12:18;;;;;;;20.63;12.02;;;;;;;9.74;92.32;101165.00;4939199;28;20049;-83
2024/03/20 04:14:46;;;;;;;21.65;11.90;;;;;;;9.74;92.83;101165.84;4952136;28;20054;-82
2024/03/20 04:17:15;;;;;;;26.00;12.73;;;;;;;9.77;92.52;101170.22;4958752;28;20042;-83
2024/03/20 04:19:42;;;;;;;22.52;12.15;;;;;;;9.78;92.96;101166.72;4960239;28;20054;-83
2024/03/20 04:22:08;;;;;;;26.20;12.55;;;;;;;9.80;92.45;101167.59;4962473;28;20058;-85
2024/03/20 04:24:35;;;;;;;22.60;13.68;;;;;;;9.80;92.30;101164.13;4955583;28;20105;-82
2024/03/20 04:27:01;;;;;;;18.95;12.18;;;;;;;9.79;92.17;101168.50;4966378;28;20043;-82
2024/03/20 04:29:29;;;;;;;21.33;12.30;;;;;;;9.81;91.96;101169.34;4948954;28;20081;-82
2024/03/20 04:31:56;;;;;;;23.67;13.02;;;;;;;9.82;91.71;101173.72;4954246;28;20140;-82
2024/03/20 04:34:23;;;;;;;23.40;11.95;;;;;;;9.81;91.79;101166.72;4965086;28;20054;-82
2024/03/20 04:36:50;;;;;;;17.52;11.68;;;;;;;9.81;91.51;101171.09;4956211;28;20047;-82
2024/03/20 04:39:18;;;;;;;22.05;12.95;;;;;;;9.83;91.78;101166.72;4977081;28;20395;-83
2024/03/20 04:41:48;;;;;;;21.98;12.77;;;;;;;9.84;91.53;101171.09;4956864;28;20121;-81
2024/03/20 04:44:15;;;;;;;20.20;11.63;;;;;;;9.82;91.62;101173.72;4974834;28;20047;-83
2024/03/20 04:46:42;;;;;;;18.27;11.95;;;;;;;9.85;91.27;101159.78;4971321;28;20069;-83
2024/03/20 04:49:08;;;;;;;21.85;12.63;;;;;;;9.89;91.05;101166.75;4957235;28;20043;-82
2024/03/20 04:51:35;;;;;;;18.15;11.77;;;;;;;9.89;90.61;101164.13;4956850;28;20055;-82
2024/03/20 04:54:02;;;;;;;20.75;12.65;;;;;;;9.91;90.74;101165.03;4961891;28;20108;-81
2024/03/20 04:56:30;;;;;;;21.40;12.25;;;;;;;9.90;90.73;101163.28;4965278;28;20054;-82
2024/03/20 04:58:56;;;;;;;16.65;11.57;;;;;;;9.94;90.39;101170.25;4957204;28;20050;-83
2024/03/20 05:01:26;;;;;;;19.88;11.77;;;;;;;9.96;90.14;101172.88;4987219;28;20117;-81
2024/03/20 05:03:54;;;;;;;20.65;12.18;;;;;;;9.96;90.02;101170.25;4955732;28;20491;-82
2024/03/20 05:06:21;;;;;;;17.35;12.32;;;;;;;9.95;90.36;101169.38;4966163;28;20077;-83
2024/03/20 05:08:48;;;;;;;20.52;12.07;;;;;;;9.99;89.69;101176.38;4966504;28;20414;-83
2024/03/20 05:11:18;;;;;;;26.20;12.55;;;;;;;10.01;90.00;101179.88;4970906;28;20074;-85
2024/03/20 05:13:44;;;;;;;22.70;12.75;;;;;;;10.03;89.41;101180.72;4963123;28;20066;-82
2024/03/20 05:16:11;;;;;;;19.75;12.32;;;;;;;10.02;89.63;101184.19;4952064;28;20054;-83
2024/03/20 05:18:39;;;;;;;20.65;13.02;;;;;;;10.02;89.58;101180.72;4965697;28;20759;-82
2024/03/20 05:21:07;;;;;;;20.50;12.95;;;;;;;9.98;89.81;101181.59;4969071;28;20398;-83
2024/03/20 05:23:33;;;;;;;22.67;12.95;;;;;;;9.98;89.84;101182.47;4970263;28;20133;-81
2024/03/20 05:26:00;;;;;;;23.77;13.85;;;;;;;10.01;89.70;101181.59;4964086;28;20125;-81
2024/03/20 05:28:30;;;;;;;21.67;12.30;;;;;;;10.01;90.04;101187.72;4980075;28;20073;-82
2024/03/20 05:30:59;;;;;;;19.42;11.93;;;;;;;10.01;89.95;101181.59;4966535;28;20510;-83
2024/03/20 05:33:25;;;;;;;20.48;13.23;;;;;;;10.01;89.90;101187.72;4969332;28;20047;-81
2024/03/20 05:35:51;;;;;;;20.73;12.48;;;;;;;10.03;89.65;101182.47;4953414;28;20046;-81
2024/03/20 05:38:42;;;;;;;18.75;12.15;;;;;;;9.99;89.82;101184.22;4973427;28;20165;-82
2024/03/20 05:41:08;;;;;;;22.08;13.73;;;;;;;10.01;89.58;101190.31;4979422;28;20403;-81
2024/03/20 05:43:35;;;;;;;23.05;13.70;;;;;;;10.06;89.80;101192.94;4952145;28;20050;-81
2024/03/20 05:46:03;;;;;;;26.52;14.07;;;;;;;10.07;90.10;101199.91;4959690;28;20085;-82
2024/03/20 05:48:31;;;;;;;23.70;12.65;;;;;;;10.07;89.36;101195.53;4950636;28;20562;-82
2024/03/20 05:50:58;;;;;;;17.95;11.90;;;;;;;10.08;89.72;101191.22;4956434;28;20424;-82
2024/03/20 05:53:25;;;;;;;22.30;12.90;;;;;;;10.09;89.88;101192.97;4972275;28;20061;-82
2024/03/20 05:55:53;;;;;;;21.42;12.40;;;;;;;10.15;89.26;101192.09;4972095;28;20065;-81
2024/03/20 05:58:20;;;;;;;26.38;12.52;;;;;;;10.14;89.31;101191.19;4960404;28;20051;-82
2024/03/20 06:00:45;;;;;;;20.20;11.85;;;;;;;10.11;89.25;101206.91;4955295;28;20055;-83
2024/03/20 06:03:12;;;;;;;18.35;11.90;;;;;;;10.13;89.38;101202.56;4971624;28;20035;-81
2024/03/20 06:05:38;;;;;;;22.02;12.77;;;;;;;10.14;89.26;101206.03;4950004;28;20093;-81
2024/03/20 06:08:06;;;;;;;23.67;12.43;;;;;;;10.13;89.23;101199.94;4966992;28;20081;-82
2024/03/20 06:10:32;;;;;;;21.35;12.40;;;;;;;10.09;89.24;101208.66;4957931;28;20073;-80
2024/03/20 06:12:59;;;;;;;19.90;11.80;;;;;;;10.15;88.99;101203.41;4944013;28;20058;-81
2024/03/20 06:15:26;;;;;;;24.20;12.15;;;;;;;10.14;89.11;101206.03;4966298;28;20205;-82
2024/03/20 06:17:52;;;;;;;21.63;13.73;;;;;;;10.15;89.17;101207.78;4947947;28;20054;-80
2024/03/20 06:20:19;;;;;;;21.08;12.82;;;;;;;10.17;89.16;101211.25;4966926;28;20057;-82
2024/03/20 06:22:49;;;;;;;18.88;12.85;;;;;;;10.08;89.40;101202.53;4962442;28;20059;-83
2024/03/20 06:25:15;;;;;;;22.58;11.98;;;;;;;10.16;88.98;101204.31;4948776;28;20053;-82
2024/03/20 06:27:44;;;;;;;21.88;12.68;;;;;;;10.17;89.08;101201.69;4975742;28;20038;-82
2024/03/20 06:30:21;;;;;;;25.55;12.93;;;;;;;10.18;89.03;101207.78;4948494;28;20078;-82
2024/03/20 06:32:50;;;;;;;22.67;12.55;;;;;;;10.16;89.22;101202.56;4945774;28;20581;-82
2024/03/20 06:35:17;;;;;;;19.67;12.25;;;;;;;10.19;89.14;101201.69;4960024;28;20082;-81
2024/03/20 06:37:46;;;;;;;19.40;11.90;;;;;;;10.24;88.87;101206.03;4985147;28;20054;-82
2024/03/20 06:40:12;;;;;;;18.38;11.52;;;;;;;10.35;88.29;101205.19;4971740;28;20038;-82
2024/03/20 06:42:39;;;;;;;20.63;11.68;;;;;;;10.42;87.74;101213.06;4954974;28;20138;-81
2024/03/20 06:45:07;;;;;;;20.90;12.05;;;;;;;10.51;87.64;101206.97;4969527;28;20058;-81
2024/03/20 06:47:37;;;;;;;21.88;12.00;;;;;;;10.55;86.89;101211.34;4928658;28;20073;-82
2024/03/20 06:50:06;;;;;;;26.75;13.05;;;;;;;10.59;86.83;101204.38;4962085;28;20492;-82
2024/03/20 06:52:38;;;;;;;36.53;13.02;;;;;;;10.63;86.80;101203.47;4954818;28;20487;-83
2024/03/20 06:55:07;;;;;;;20.40;13.23;;;;;;;10.68;85.93;101208.72;4951521;28;20047;-82
2024/03/20 06:57:33;;;;;;;23.75;12.55;;;;;;;10.73;86.00;101215.69;4950729;28;20501;-82
2024/03/20 06:59:59;;;;;;;20.20;11.73;;;;;;;10.70;86.06;101220.06;4976821;28;20050;-82
2024/03/20 07:02:29;;;;;;;21.10;12.60;;;;;;;10.79;85.47;101214.81;4969266;28;20367;-83
2024/03/20 07:04:56;;;;;;;18.98;12.20;;;;;;;10.87;84.99;101204.34;4961271;28;20120;-82
2024/03/20 07:07:25;;;;;;;21.60;10.88;;;;;;;10.96;85.11;101206.06;4949268;28;20065;-83
2024/03/20 07:09:52;;;;;;;20.70;12.07;;;;;;;11.04;84.41;101206.91;4954821;28;20057;-83
2024/03/20 07:12:19;;;;;;;22.15;10.98;;;;;;;11.12;84.28;101215.66;4960875;28;20043;-82
2024/03/20 07:14:45;;;;;;;19.95;11.52;;;;;;;11.25;83.29;101213.84;4957936;28;20039;-83
2024/03/20 07:17:12;;;;;;;15.45;11.02;;;;;;;11.36;82.82;101209.47;4964262;28;20454;-82
2024/03/20 07:19:38;;;;;;;25.80;12.25;;;;;;;11.46;81.91;101212.94;4967968;28;20043;-82
2024/03/20 07:22:05;;;;;;;22.77;12.27;;;;;;;11.56;81.09;101213.75;4938625;29;20341;-81
2024/03/20 07:24:30;;;;;;;21.65;11.98;;;;;;;11.65;80.69;101210.22;4969678;28;20069;-85
2024/03/20 07:27:00;;;;;;;19.90;11.25;;;;;;;11.77;80.15;101220.66;4961133;28;20130;-82
2024/03/20 07:29:27;;;;;;;20.27;11.57;;;;;;;11.90;79.30;101211.88;4969048;28;20061;-82
2024/03/20 07:31:56;;;;;;;23.00;11.32;;;;;;;12.14;78.49;101222.25;4957233;28;20043;-85
2024/03/20 07:34:24;;;;;;;22.35;11.90;;;;;;;12.64;75.14;101222.75;4942078;28;20105;-82
2024/03/20 07:36:51;;;;;;;19.90;11.15;;;;;;;12.70;75.29;101220.94;4951478;28;20043;-82
2024/03/20 07:39:19;;;;;;;19.13;11.30;;;;;;;13.00;74.67;101220.69;4970503;28;20054;-84
2024/03/20 07:41:46;;;;;;;23.42;13.40;;;;;;;13.52;72.26;101221.91;4969006;28;20096;-83
2024/03/20 07:44:17;;;;;;;14.93;10.85;;;;;;;13.65;71.42;101225.22;4952390;28;20058;-82
2024/03/20 07:46:44;;;;;;;20.95;11.18;;;;;;;13.93;70.09;101228.38;4964309;28;20069;-82
2024/03/20 07:49:09;;;;;;;15.25;10.63;;;;;;;14.08;69.83;101227.31;4957377;28;20110;-83
2024/03/20 07:51:36;;;;;;;16.00;9.45;;;;;;;14.15;68.78;101231.59;4946179;28;20525;-82
2024/03/20 07:54:02;;;;;;;18.85;9.80;;;;;;;14.57;67.87;101236.22;4956276;28;20093;-82
2024/03/20 07:56:28;;;;;;;19.17;11.40;;;;;;;14.72;66.68;101228.09;4960556;28;20450;-83
2024/03/20 07:58:54;;;;;;;21.02;9.90;;;;;;;14.76;66.87;101236.81;4966510;28;20098;-83
2024/03/20 08:01:21;;;;;;;13.20;8.77;;;;;;;15.37;64.32;101232.19;4963417;28;20049;-81
2024/03/20 08:03:52;;;;;;;17.20;10.10;;;;;;;16.08;61.66;101237.78;4959035;28;20563;-82
2024/03/20 08:06:18;;;;;;;15.10;9.75;;;;;;;16.71;58.53;101245.97;4949014;28;20069;-82
2024/03/20 08:08:44;;;;;;;15.50;10.52;;;;;;;16.45;59.11;101251.91;4943002;28;20145;-82
2024/03/20 08:11:11;;;;;;;15.68;9.85;;;;;;;17.09;59.25;101243.28;4959378;28;20047;-81
2024/03/20 08:13:38;;;;;;;15.65;9.10;;;;;;;16.87;57.04;101239.41;4972138;28;20057;-82
2024/03/20 08:16:05;;;;;;;18.83;9.88;;;;;;;16.64;59.28;101245.25;4946074;28;20423;-84
2024/03/20 08:18:31;;;;;;;13.32;9.50;;;;;;;16.34;59.58;101239.81;4947915;28;20046;-81
2024/03/20 08:20:58;;;;;;;15.52;10.23;;;;;;;17.43;57.08;101245.00;4966758;28;20047;-82
2024/03/20 08:23:25;;;;;;;13.10;9.00;;;;;;;18.15;53.35;101240.25;4969837;28;20042;-85
2024/03/20 08:25:54;;;;;;;13.60;9.05;;;;;;;18.21;54.90;101241.81;4951255;28;20135;-83
2024/03/20 08:28:21;;;;;;;14.40;8.88;;;;;;;18.20;54.57;101234.81;4946263;28;20071;-84
2024/03/20 08:30:50;;;;;;;18.63;10.40;;;;;;;17.49;54.22;101248.34;4976786;28;20042;-82
2024/03/20 08:33:17;;;;;;;14.30;9.15;;;;;;;17.29;56.76;101248.91;4960387;28;20043;-83
2024/03/20 08:35:44;;;;;;;15.07;10.52;;;;;;;16.83;56.74;101247.44;4966505;28;20155;-82
2024/03/20 08:38:10;;;;;;;15.57;10.25;;;;;;;16.85;56.93;101243.84;4947337;28;20042;-82
2024/03/20 08:40:37;;;;;;;11.73;8.10;;;;;;;17.10;56.50;101251.16;4964864;28;20505;-84
2024/03/20 08:43:03;;;;;;;13.85;8.63;;;;;;;17.71;54.95;101242.44;4958447;28;20047;-83
2024/03/20 08:45:32;;;;;;;10.95;8.85;;;;;;;16.99;54.81;101248.81;4957148;28;20097;-83
2024/03/20 08:47:57;;;;;;;15.38;9.35;;;;;;;16.36;56.66;101248.59;4964176;28;20055;-84
2024/03/20 08:50:26;;;;;;;16.23;8.65;;;;;;;16.64;56.86;101249.69;4961069;28;20526;-83
2024/03/20 08:52:52;;;;;;;12.70;8.50;;;;;;;17.50;55.29;101236.00;4961260;28;20039;-82
2024/03/20 08:55:22;;;;;;;14.63;9.15;;;;;;;17.86;53.41;101235.81;4953323;28;20049;-81
2024/03/20 08:57:51;;;;;;;16.63;9.73;;;;;;;18.14;51.80;101235.84;4965656;28;20054;-83
2024/03/20 09:00:22;;;;;;;15.65;9.13;;;;;;;17.85;53.89;101242.88;4977846;28;20117;-83
2024/03/20 09:02:48;;;;;;;16.83;11.02;;;;;;;17.67;53.77;101241.66;4954912;28;20039;-85
2024/03/20 09:05:14;;;;;;;14.88;8.90;;;;;;;18.13;53.08;101234.16;4959535;28;20409;-83
2024/03/20 09:07:40;;;;;;;16.35;8.52;;;;;;;18.60;51.55;101236.16;4982436;28;20058;-83
2024/03/20 09:10:08;;;;;;;11.23;7.68;;;;;;;19.14;51.62;101242.31;4977776;28;20050;-82
2024/03/20 09:12:33;;;;;;;14.82;9.02;;;;;;;19.47;51.18;101236.69;4957836;28;20031;-83
2024/03/20 09:15:00;;;;;;;14.85;10.35;;;;;;;19.46;50.46;101244.72;4957010;28;20528;-82
2024/03/20 09:17:26;;;;;;;12.95;9.52;;;;;;;19.47;50.91;101246.47;4946379;28;20466;-85
2024/03/20 09:19:55;;;;;;;12.90;9.50;;;;;;;19.34;50.96;101238.06;4950646;28;20074;-85
2024/03/20 09:22:21;;;;;;;12.82;7.97;;;;;;;19.27;50.73;101232.13;4956206;28;20101;-82
2024/03/20 09:24:51;;;;;;;12.18;9.27;;;;;;;19.62;50.25;101232.63;4956354;28;20043;-82
2024/03/20 09:27:17;;;;;;;13.27;9.32;;;;;;;19.61;49.23;101230.88;4945336;28;20050;-82
2024/03/20 09:29:47;;;;;;;22.40;8.75;;;;;;;19.08;50.00;101237.22;4957039;28;20045;-83
2024/03/20 09:32:15;;;;;;;11.93;8.40;;;;;;;18.33;51.29;101237.94;4966528;28;20550;-83
2024/03/20 09:34:44;;;;;;;10.70;8.60;;;;;;;17.91;52.79;101233.88;4964758;28;20494;-83
2024/03/20 09:37:10;;;;;;;14.10;7.80;;;;;;;18.02;52.58;101238.91;4958636;28;20054;-84
2024/03/20 09:39:37;;;;;;;12.00;7.93;;;;;;;18.35;52.53;101238.75;4958848;28;20043;-81
2024/03/20 09:42:06;;;;;;;12.60;8.63;;;;;;;18.39;52.02;101229.78;4951452;28;20094;-82
2024/03/20 09:44:36;;;;;;;12.35;8.30;;;;;;;18.50;52.13;101238.25;4942976;28;20110;-82
2024/03/20 09:47:05;;;;;;;9.95;7.43;;;;;;;18.39;51.68;101229.78;4965210;28;20129;-82
2024/03/20 09:49:34;;;;;;;8.48;7.25;;;;;;;18.12;52.74;101229.75;4979187;28;20574;-84
2024/03/20 09:52:01;;;;;;;12.70;7.75;;;;;;;17.85;53.30;101234.09;4943762;28;20077;-82
2024/03/20 09:54:39;;;;;;;11.68;8.02;;;;;;;17.62;52.94;101235.63;4954466;28;20402;-86
2024/03/20 09:57:05;;;;;;;10.57;6.53;;;;;;;17.80;52.86;101230.72;4945074;28;20098;-82
2024/03/20 09:59:36;;;;;;;11.32;6.55;;;;;;;17.96;52.50;101229.34;4955279;28;20078;-83
2024/03/20 10:02:01;;;;;;;10.95;6.65;;;;;;;18.39;52.37;101226.28;4952091;28;20134;-83
2024/03/20 10:04:29;;;;;;;12.18;6.88;;;;;;;18.76;51.70;101227.69;4960025;28;20064;-81
2024/03/20 10:06:57;;;;;;;11.30;7.53;;;;;;;18.98;50.77;101225.19;4955140;28;20051;-83
2024/03/20 10:09:31;;;;;;;11.70;6.38;;;;;;;19.82;49.31;101223.06;4964253;28;20501;-85
2024/03/20 10:11:57;;;;;;;9.43;7.20;;;;;;;19.77;47.96;101220.53;4958834;28;20053;-85
2024/03/20 10:14:26;;;;;;;10.30;6.97;;;;;;;20.08;48.61;101215.88;4965830;28;20055;-82
2024/03/20 10:16:51;;;;;;;10.02;6.47;;;;;;;20.63;46.63;101218.03;4980419;28;20057;-83
2024/03/20 10:19:25;;;;;;;10.82;5.93;;;;;;;20.62;46.59;101216.31;4968959;28;20426;-85
2024/03/20 10:21:51;;;;;;;;;;;;;;;20.22;46.35;101212.63;4960776;28;20384;-83
2024/03/20 10:24:21;;;;;;;12.00;6.03;;;;;;;20.29;47.68;101216.78;4964823;28;20009;-83
2024/03/20 10:26:48;;;;;;;9.60;5.70;;;;;;;20.70;47.00;101210.69;4953669;28;20055;-85
2024/03/20 10:29:16;;;;;;;8.52;7.00;;;;;;;20.11;47.15;101216.59;4952911;28;20058;-83
2024/03/20 10:31:43;;;;;;;9.98;6.75;;;;;;;20.09;47.49;101214.91;4949219;28;20055;-82
2024/03/20 10:34:19;;;;;;;9.85;5.53;;;;;;;20.41;47.30;101220.72;4941294;28;20047;-83
2024/03/20 10:36:49;;;;;;;9.55;6.78;;;;;;;20.54;46.52;101221.09;4939010;28;20051;-83
2024/03/20 10:39:18;;;;;;;9.02;6.45;;;;;;;20.74;45.96;101201.66;4960219;28;20134;-84
2024/03/20 10:41:47;;;;;;;8.45;6.32;;;;;;;21.24;45.92;101208.38;4966860;28;20042;-82
2024/03/20 10:44:19;;;;;;;9.45;5.88;;;;;;;21.76;43.68;101205.97;4951055;28;20045;-82
2024/03/20 10:46:53;;;;;;;6.70;5.53;;;;;;;22.18;43.47;101197.81;4952515;28;20047;-84
2024/03/20 10:49:25;;;;;;;6.57;5.88;;;;;;;22.52;43.14;101197.00;4950293;28;20044;-82
2024/03/20 10:51:53;;;;;;;8.43;5.57;;;;;;;23.84;40.43;101198.94;4970461;28;20438;-84
2024/03/20 10:54:21;;;;;;;7.15;5.25;;;;;;;24.37;39.71;101196.84;4972689;28;20474;-84
2024/03/20 10:56:52;;;;;;;7.60;5.55;;;;;;;24.70;38.35;101203.00;4983943;28;20086;-80
2024/03/20 10:59:23;;;;;;;10.07;6.30;;;;;;;24.23;39.11;101204.81;4966831;28;20048;-83
2024/03/20 11:02:03;;;;;;;12.68;7.32;;;;;;;23.60;39.47;101199.38;4979528;28;20301;-83
2024/03/20 11:04:41;;;;;;;10.90;6.60;;;;;;;23.03;40.85;101204.22;4986411;28;20046;-84
2024/03/20 11:07:28;;;;;;;7.57;5.95;;;;;;;22.63;41.61;101201.78;4947452;28;20070;-82
2024/03/20 11:09:59;;;;;;;10.45;7.18;;;;;;;22.07;43.18;101204.53;4955164;28;20566;-85
2024/03/20 11:12:36;;;;;;;9.68;5.50;;;;;;;22.55;42.13;101196.00;4972360;28;20133;-80
2024/03/20 11:15:07;;;;;;;7.93;6.50;;;;;;;22.72;42.11;101196.00;4965651;28;20046;-83
2024/03/20 11:17:37;;;;;;;9.10;6.07;;;;;;;22.57;41.45;101196.78;4962734;28;20438;-82